Time;durP1;ratioP1;P1;durP2;ratioP2;P2;SDS_P1;SDS_P2;PMS_P1;PMS_P2;Temp;Humidity;BMP_temperature;BMP_pressure;BME280_temperature;BME280_humidity;BME280_pressure;Samples;Min_cycle;Max_cycle;Signal;HPM_P1;HPM_P2
2021/12/24 00:00:00;;;;;;;12.23;7.20;;;;;;;9.69;66.64;98838.53;345496;28;1230;-64
2021/12/24 00:00:14;;;;;;;14.15;7.93;;;;;;;9.71;66.80;98839.31;347843;28;1226;-63
2021/12/24 00:00:26;;;;;;;16.83;9.38;;;;;;;9.71;66.56;98832.34;346331;28;1961;-64
2021/12/24 00:00:41;;;;;;;16.30;9.27;;;;;;;9.68;66.66;98842.00;346200;28;1579;-63
2021/12/24 00:00:54;;;;;;;14.30;8.23;;;;;;;9.62;67.09;98831.88;344050;28;3621;-64
2021/12/24 00:01:10;;;;;;;13.27;7.50;;;;;;;9.63;66.66;98833.59;345955;28;3220;-64
2021/12/24 00:01:23;;;;;;;11.30;6.38;;;;;;;9.67;66.66;98835.16;346242;28;1064;-64
2021/12/24 00:01:35;;;;;;;11.20;6.50;;;;;;;9.66;66.69;98838.63;345750;28;5411;-63
2021/12/24 00:01:48;;;;;;;12.48;7.50;;;;;;;9.71;66.88;98837.53;346612;28;2585;-64
2021/12/24 00:02:00;;;;;;;14.43;8.15;;;;;;;9.73;66.60;98830.53;347521;28;1601;-64
2021/12/24 00:02:12;;;;;;;16.30;8.52;;;;;;;9.75;66.72;98827.88;346066;28;1640;-64
2021/12/24 00:02:24;;;;;;;15.85;8.40;;;;;;;9.78;66.35;98838.16;345454;28;2429;-64
2021/12/24 00:02:38;;;;;;;14.40;7.68;;;;;;;9.75;66.58;98838.25;346352;28;1011;-64
2021/12/24 00:02:53;;;;;;;14.85;7.80;;;;;;;9.69;66.51;98828.13;346373;28;3063;-64
2021/12/24 00:03:06;;;;;;;16.83;8.32;;;;;;;9.64;66.56;98837.84;345836;28;2054;-64
2021/12/24 00:03:18;;;;;;;14.45;7.57;;;;;;;9.63;66.76;98833.59;345845;28;1130;-64
2021/12/24 00:03:31;;;;;;;13.60;7.05;;;;;;;9.67;66.75;98840.34;346239;28;1232;-64
2021/12/24 00:03:44;;;;;;;13.15;7.13;;;;;;;9.71;66.71;98834.09;346393;28;1319;-64
2021/12/24 00:03:56;;;;;;;13.02;6.97;;;;;;;9.70;66.78;98830.69;346367;28;1230;-64
2021/12/24 00:04:09;;;;;;;11.45;6.40;;;;;;;9.70;66.78;98830.69;344976;28;1030;-64
2021/12/24 00:04:22;;;;;;;11.13;5.75;;;;;;;9.71;66.46;98827.16;344638;28;1888;-64
2021/12/24 00:04:34;;;;;;;11.57;5.65;;;;;;;9.77;66.25;98826.06;346643;28;743;-64
2021/12/24 00:04:46;;;;;;;11.68;5.90;;;;;;;9.74;66.19;98824.44;346328;28;1172;-63
2021/12/24 00:04:58;;;;;;;11.63;5.93;;;;;;;9.71;66.34;98827.16;346430;28;1499;-63
2021/12/24 00:05:10;;;;;;;11.60;6.05;;;;;;;9.72;66.47;98828.03;346056;28;1046;-64
2021/12/24 00:05:26;;;;;;;11.88;6.30;;;;;;;9.71;66.40;98832.34;346156;28;1238;-64
2021/12/24 00:05:39;;;;;;;11.75;6.50;;;;;;;9.66;66.47;98831.72;346224;28;1050;-63
2021/12/24 00:05:51;;;;;;;11.27;6.68;;;;;;;9.71;66.57;98832.34;346170;28;1062;-64
2021/12/24 00:06:05;;;;;;;10.98;6.55;;;;;;;9.69;66.34;98823.78;345424;28;1837;-64
2021/12/24 00:06:17;;;;;;;10.05;5.82;;;;;;;9.69;66.45;98828.13;345504;28;1851;-64
2021/12/24 00:06:29;;;;;;;11.60;6.10;;;;;;;9.69;66.52;98822.94;346084;28;1260;-64
2021/12/24 00:06:41;;;;;;;13.15;6.57;;;;;;;9.71;66.38;98823.72;346163;28;1766;-64
2021/12/24 00:06:53;;;;;;;12.25;6.78;;;;;;;9.64;66.69;98830.06;344911;28;3049;-64
2021/12/24 00:07:05;;;;;;;14.85;7.85;;;;;;;9.62;66.93;98826.69;346107;28;1980;-64
2021/12/24 00:07:17;;;;;;;15.85;8.00;;;;;;;9.60;67.06;98824.19;346179;28;1330;-64
2021/12/24 00:07:30;;;;;;;16.20;8.15;;;;;;;9.59;66.79;98833.72;346483;28;1042;-64
2021/12/24 00:07:42;;;;;;;14.77;7.72;;;;;;;9.54;66.96;98825.28;345162;28;1104;-63
2021/12/24 00:07:54;;;;;;;14.57;7.50;;;;;;;9.55;66.97;98826.13;344834;28;1136;-63
2021/12/24 00:08:07;;;;;;;16.52;7.85;;;;;;;9.51;67.09;98820.22;344459;28;2016;-64
2021/12/24 00:08:19;;;;;;;19.15;9.38;;;;;;;9.55;67.06;98826.13;342268;28;1240;-63
2021/12/24 00:08:32;;;;;;;17.65;9.35;;;;;;;9.57;67.08;98824.31;342198;28;1095;-64
2021/12/24 00:08:46;;;;;;;17.17;8.75;;;;;;;9.56;67.10;98828.66;342116;28;1194;-64
2021/12/24 00:08:58;;;;;;;16.50;8.48;;;;;;;9.50;67.00;98834.09;342232;28;1671;-63
2021/12/24 00:09:10;;;;;;;16.40;8.65;;;;;;;9.57;67.00;98826.91;341895;28;1124;-64
2021/12/24 00:09:24;;;;;;;13.50;7.53;;;;;;;9.53;66.80;98833.97;342125;28;1357;-64
2021/12/24 00:09:37;;;;;;;12.85;7.35;;;;;;;9.46;67.40;98826.53;342152;28;1051;-64
2021/12/24 00:09:49;;;;;;;16.27;9.05;;;;;;;9.47;67.24;98826.44;342484;28;964;-64
2021/12/24 00:10:01;;;;;;;17.08;9.35;;;;;;;9.45;67.45;98828.25;342332;28;1098;-64
2021/12/24 00:10:16;;;;;;;15.85;8.60;;;;;;;9.44;67.11;98823.97;342367;28;1111;-64
2021/12/24 00:10:30;;;;;;;13.80;7.57;;;;;;;9.54;67.20;98830.47;344717;28;1108;-63
2021/12/24 00:10:46;;;;;;;14.43;7.72;;;;;;;9.45;67.42;98836.03;345949;28;1949;-64
2021/12/24 00:11:00;;;;;;;20.30;9.95;;;;;;;9.50;67.40;98828.09;345037;28;2045;-64
2021/12/24 00:11:13;;;;;;;23.90;11.45;;;;;;;9.54;67.15;98830.47;344953;28;1168;-64
2021/12/24 00:11:25;;;;;;;21.80;10.40;;;;;;;9.56;66.83;98836.44;344849;28;1057;-63
2021/12/24 00:11:37;;;;;;;18.20;9.27;;;;;;;9.58;66.95;98832.03;345771;28;1760;-64
2021/12/24 00:11:51;;;;;;;15.18;8.20;;;;;;;9.63;66.89;98838.78;345602;28;1286;-63
2021/12/24 00:12:11;;;;;;;14.40;7.72;;;;;;;9.61;66.75;98836.25;345913;28;1628;-63
2021/12/24 00:12:26;;;;;;;13.48;7.15;;;;;;;9.64;66.89;98837.84;346208;28;1949;-64
2021/12/24 00:12:44;;;;;;;14.90;7.78;;;;;;;9.54;66.91;98838.25;345244;28;1123;-63
2021/12/24 00:13:01;;;;;;;16.13;8.07;;;;;;;9.57;67.12;98838.13;344874;28;1622;-63
2021/12/24 00:13:16;;;;;;;14.50;7.63;;;;;;;9.56;66.98;98839.03;345409;28;1903;-64
2021/12/24 00:13:34;;;;;;;14.75;7.88;;;;;;;9.55;66.95;98847.72;346019;28;1045;-64
2021/12/24 00:13:49;;;;;;;13.23;7.30;;;;;;;9.53;67.05;98838.31;345108;28;1061;-64
2021/12/24 00:14:04;;;;;;;13.00;7.20;;;;;;;9.56;67.34;98841.63;345667;28;1693;-64
2021/12/24 00:14:17;;;;;;;15.93;8.13;;;;;;;9.56;66.86;98838.19;345724;28;1949;-64
2021/12/24 00:14:31;;;;;;;18.98;9.73;;;;;;;9.60;66.80;98835.41;345748;28;1205;-64
2021/12/24 00:14:48;;;;;;;20.08;10.75;;;;;;;9.57;67.00;98832.94;346222;28;1066;-64
2021/12/24 00:15:10;;;;;;;17.45;9.25;;;;;;;9.48;66.96;98843.69;345885;28;1645;-64
2021/12/24 00:16:03;;;;;;;10.80;6.57;;;;;;;9.63;66.59;98838.78;346071;28;1067;-64
2021/12/24 00:16:44;;;;;;;11.48;6.28;;;;;;;9.56;66.91;98836.44;346300;28;1094;-64
2021/12/24 00:17:04;;;;;;;12.82;6.43;;;;;;;9.58;66.90;98842.41;346278;28;1572;-63
2021/12/24 00:17:22;;;;;;;11.40;6.50;;;;;;;9.63;66.69;98833.59;346216;28;1054;-64
2021/12/24 00:17:38;;;;;;;10.45;5.95;;;;;;;9.68;66.63;98831.63;346228;28;1041;-64
2021/12/24 00:17:54;;;;;;;9.32;5.43;;;;;;;9.66;66.61;98833.44;346175;28;1066;-64
2021/12/24 00:18:53;;;;;;;13.05;6.40;;;;;;;9.61;66.82;98831.06;346374;28;1079;-64
2021/12/24 00:20:16;;;;;;;15.70;8.50;;;;;;;9.54;67.10;98827.88;345438;28;1434;-63
2021/12/24 00:21:45;;;;;;;14.77;7.40;;;;;;;9.54;67.05;98825.28;346527;28;1047;-64
2021/12/24 00:22:26;;;;;;;10.88;6.20;;;;;;;9.67;66.51;98825.59;345469;28;1613;-63
2021/12/24 00:35:05;;;;;;;14.88;7.78;;;;;;;9.58;66.85;98826.84;345118;28;1276;-64
2021/12/24 00:35:15;;;;;;;20.15;11.63;;;;;;;9.52;67.13;98826.28;344834;28;1899;-64
2021/12/24 00:35:31;;;;;;;20.60;11.00;;;;;;;9.44;67.58;98823.97;343611;28;1098;-64
2021/12/24 00:35:45;;;;;;;21.75;12.02;;;;;;;9.53;67.11;98823.59;342114;28;1104;-64
2021/12/24 00:35:57;;;;;;;24.30;14.07;;;;;;;9.57;66.78;98830.34;343215;28;1706;-64
2021/12/24 00:36:09;;;;;;;21.40;12.38;;;;;;;9.57;67.00;98822.53;344385;28;2241;-64
2021/12/24 00:36:21;;;;;;;18.38;10.38;;;;;;;9.60;67.02;98827.63;344616;28;1165;-64
2021/12/24 00:36:33;;;;;;;17.67;9.75;;;;;;;9.66;66.83;98828.25;344735;28;1242;-64
2021/12/24 00:36:45;;;;;;;17.48;9.50;;;;;;;9.67;66.57;98824.78;344726;28;1253;-64
2021/12/24 00:36:57;;;;;;;17.90;9.68;;;;;;;9.59;66.93;98823.31;345116;28;1567;-63
2021/12/24 00:37:09;;;;;;;17.33;9.68;;;;;;;9.57;66.87;98824.31;344204;28;1810;-64
2021/12/24 00:37:22;;;;;;;17.95;9.27;;;;;;;9.58;66.79;98826.84;343417;28;1288;-63
2021/12/24 00:37:35;;;;;;;16.75;8.52;;;;;;;9.56;66.80;98823.47;344549;28;1253;-63
2021/12/24 00:37:48;;;;;;;11.75;7.07;;;;;;;9.58;66.92;98821.66;345033;28;2158;-63
2021/12/24 00:38:03;;;;;;;10.00;6.65;;;;;;;9.60;66.82;98819.84;346455;28;1729;-64
2021/12/24 00:38:16;;;;;;;10.57;7.18;;;;;;;9.58;66.65;98820.81;346254;28;1078;-63
2021/12/24 00:38:28;;;;;;;12.23;7.88;;;;;;;9.63;66.96;98823.22;346307;28;1054;-64
2021/12/24 00:38:40;;;;;;;11.60;7.53;;;;;;;9.66;66.71;98823.94;346081;28;1024;-63
2021/12/24 00:38:52;;;;;;;12.15;7.53;;;;;;;9.67;66.69;98815.22;345171;28;2081;-63
2021/12/24 00:39:04;;;;;;;11.93;7.07;;;;;;;9.67;66.47;98829.97;345873;28;1263;-64
2021/12/24 00:39:16;;;;;;;11.30;6.38;;;;;;;9.66;66.94;98823.06;345041;28;1071;-63
2021/12/24 00:39:28;;;;;;;9.05;5.88;;;;;;;9.71;66.50;98821.13;344832;28;1071;-63
2021/12/24 00:39:49;;;;;;;8.43;5.85;;;;;;;9.69;66.37;98823.78;345158;28;744;-64
2021/12/24 00:40:20;;;;;;;10.68;5.30;;;;;;;9.73;66.37;98816.72;344695;28;1268;-64
2021/12/24 00:40:38;;;;;;;10.55;5.55;;;;;;;9.73;66.36;98816.72;345810;28;1070;-63
2021/12/24 00:40:50;;;;;;;10.23;5.78;;;;;;;9.78;66.30;98822.56;345697;28;2314;-64
2021/12/24 00:41:02;;;;;;;8.75;5.65;;;;;;;9.80;66.34;98825.94;345705;28;1339;-63
2021/12/24 00:41:14;;;;;;;8.65;5.90;;;;;;;9.76;66.73;98819.19;346247;28;1130;-63
2021/12/24 00:41:26;;;;;;;9.30;5.90;;;;;;;9.76;66.16;98821.78;345347;28;2110;-64
2021/12/24 00:41:39;;;;;;;8.82;5.65;;;;;;;9.72;66.50;98823.66;345278;28;2677;-64
2021/12/24 00:41:51;;;;;;;8.50;5.63;;;;;;;9.70;66.48;98820.31;345419;28;2239;-64
2021/12/24 00:42:03;;;;;;;9.68;5.57;;;;;;;9.75;66.24;98827.88;346241;28;1785;-64
2021/12/24 00:42:18;;;;;;;9.68;5.57;;;;;;;9.79;66.38;98829.44;346113;28;1203;-63
2021/12/24 00:42:30;;;;;;;9.10;5.38;;;;;;;9.80;66.27;98826.78;346193;28;1157;-64
2021/12/24 00:42:45;;;;;;;9.05;5.38;;;;;;;9.77;66.43;98826.06;346455;28;1086;-64
2021/12/24 00:42:57;;;;;;;9.55;5.65;;;;;;;9.76;66.22;98821.78;345806;28;2182;-64
2021/12/24 00:43:11;;;;;;;10.20;5.28;;;;;;;9.80;66.04;98831.13;346539;28;1042;-65
2021/12/24 00:43:24;;;;;;;9.52;5.03;;;;;;;9.84;66.17;98826.63;346171;28;1254;-64
2021/12/24 00:43:36;;;;;;;9.05;5.18;;;;;;;9.84;66.49;98822.31;346271;28;1171;-63
2021/12/24 00:43:48;;;;;;;8.27;5.30;;;;;;;9.83;65.89;98830.16;346349;28;1240;-64
2021/12/24 00:44:00;;;;;;;8.30;5.30;;;;;;;9.84;65.93;98824.91;345758;28;1375;-64
2021/12/24 00:44:12;;;;;;;7.90;5.03;;;;;;;9.85;66.00;98823.97;346161;28;1066;-64
2021/12/24 00:44:24;;;;;;;7.80;5.10;;;;;;;9.88;66.09;98823.88;346142;28;1094;-64
2021/12/24 00:44:36;;;;;;;7.63;5.32;;;;;;;9.88;66.09;98823.00;345894;28;2100;-64
2021/12/24 00:44:48;;;;;;;7.63;5.45;;;;;;;9.83;66.05;98824.97;346214;28;1796;-64
2021/12/24 00:45:01;;;;;;;8.50;5.38;;;;;;;9.83;66.08;98825.81;345927;28;1647;-64
2021/12/24 00:45:16;;;;;;;8.85;4.95;;;;;;;9.86;66.01;98825.69;345765;28;1047;-64
2021/12/24 00:45:32;;;;;;;8.68;5.13;;;;;;;9.87;66.09;98829.13;345965;28;1297;-64
2021/12/24 00:45:45;;;;;;;7.75;5.40;;;;;;;9.86;66.05;98828.28;345986;28;1229;-64
2021/12/24 00:45:58;;;;;;;8.18;5.40;;;;;;;9.85;66.05;98829.19;345071;28;1617;-63
2021/12/24 00:46:10;;;;;;;8.98;5.45;;;;;;;9.85;66.15;98829.19;346273;28;1015;-63
2021/12/24 00:46:22;;;;;;;8.57;5.50;;;;;;;9.86;66.08;98824.81;346181;28;1035;-63
2021/12/24 00:46:34;;;;;;;8.80;5.30;;;;;;;9.89;65.99;98824.69;345458;28;1693;-64
2021/12/24 00:46:46;;;;;;;8.68;5.15;;;;;;;9.87;66.15;98831.72;346628;28;1124;-63
2021/12/24 00:46:58;;;;;;;7.95;5.00;;;;;;;9.89;65.68;98825.53;346409;28;1253;-63
2021/12/24 00:47:10;;;;;;;9.27;6.07;;;;;;;9.84;65.70;98826.63;346198;28;1058;-64
2021/12/24 00:47:22;;;;;;;8.80;6.47;;;;;;;9.82;66.14;98824.13;346369;28;1425;-63
2021/12/24 00:47:35;;;;;;;8.30;6.78;;;;;;;9.78;66.26;98822.56;346211;28;1278;-63
2021/12/24 00:47:48;;;;;;;6.88;5.63;;;;;;;9.72;66.48;98820.25;346367;28;1505;-64
2021/12/24 00:48:02;;;;;;;6.95;5.53;;;;;;;9.73;66.22;98819.31;345906;28;1655;-64
2021/12/24 00:48:18;;;;;;;10.05;7.93;;;;;;;9.78;66.39;98822.56;344928;28;1769;-63
2021/12/24 00:48:30;;;;;;;12.80;10.85;;;;;;;9.81;66.13;98827.63;346020;28;1174;-63
2021/12/24 00:48:42;;;;;;;11.20;10.00;;;;;;;9.84;66.25;98827.50;346029;28;1173;-64
2021/12/24 00:48:56;;;;;;;10.90;9.80;;;;;;;9.81;66.17;98822.44;344558;28;1334;-63
2021/12/24 00:49:08;;;;;;;9.65;7.47;;;;;;;9.75;66.23;98825.28;344898;28;1042;-64
2021/12/24 00:49:20;;;;;;;10.40;6.78;;;;;;;9.73;66.33;98824.50;345991;28;1062;-63
2021/12/24 00:49:33;;;;;;;11.18;7.03;;;;;;;9.78;66.27;98822.56;346503;28;1965;-64
2021/12/24 00:49:45;;;;;;;10.38;6.90;;;;;;;9.77;66.11;98820.88;345945;28;1168;-64
2021/12/24 00:49:58;;;;;;;9.27;6.97;;;;;;;9.79;66.27;98824.25;346410;28;1822;-64
2021/12/24 00:50:14;;;;;;;8.20;6.95;;;;;;;9.80;66.31;98820.75;345967;28;1047;-64
2021/12/24 00:50:29;;;;;;;9.77;6.47;;;;;;;9.81;66.29;98827.63;343646;28;2058;-64
2021/12/24 00:50:53;;;;;;;11.02;7.47;;;;;;;9.83;66.05;98820.59;343534;28;1099;-64
2021/12/24 00:51:20;;;;;;;7.72;6.05;;;;;;;9.83;65.68;98820.59;344822;28;1047;-63
2021/12/24 00:51:55;;;;;;;7.63;5.97;;;;;;;9.87;66.01;98829.13;344677;28;1040;-63
2021/12/24 00:52:43;;;;;;;11.80;10.60;;;;;;;9.87;65.96;98826.53;344759;28;2120;-63
2021/12/24 00:55:02;;;;;;;11.95;10.40;;;;;;;9.87;66.01;98827.34;344836;28;1190;-64
2021/12/24 00:55:09;;;;;;;8.35;7.55;;;;;;;9.80;66.33;98820.75;346420;28;1766;-64
2021/12/24 00:55:24;;;;;;;7.72;6.93;;;;;;;9.84;66.27;98822.31;345507;28;2044;-64
2021/12/24 00:55:36;;;;;;;10.35;9.35;;;;;;;9.81;66.42;98822.44;346397;28;1209;-64
2021/12/24 00:55:48;;;;;;;10.75;9.10;;;;;;;9.86;66.36;98820.50;346526;28;1113;-64
2021/12/24 00:56:07;;;;;;;11.32;8.60;;;;;;;9.86;66.30;98825.69;346204;28;1684;-64
2021/12/24 00:56:19;;;;;;;11.00;8.70;;;;;;;9.89;65.95;98822.09;346546;28;1069;-64
2021/12/24 00:56:31;;;;;;;9.00;7.18;;;;;;;9.88;66.15;98823.88;346213;28;1061;-64
2021/12/24 00:56:43;;;;;;;8.00;6.28;;;;;;;9.83;66.27;98825.81;346335;28;1071;-63
2021/12/24 00:56:55;;;;;;;8.77;5.95;;;;;;;9.79;66.50;98819.88;346181;28;1279;-64
2021/12/24 00:57:07;;;;;;;9.32;5.88;;;;;;;9.70;66.60;98819.44;346241;28;1031;-64
2021/12/24 00:57:20;;;;;;;8.82;5.90;;;;;;;9.69;66.75;98821.19;345940;28;1582;-64
2021/12/24 00:57:34;;;;;;;8.98;6.10;;;;;;;9.71;66.67;98815.94;346245;28;1166;-64
2021/12/24 00:57:51;;;;;;;8.65;6.00;;;;;;;9.72;66.85;98813.28;346189;28;1027;-64
2021/12/24 00:58:04;;;;;;;9.93;6.85;;;;;;;9.74;66.63;98818.44;345637;28;1496;-64
2021/12/24 00:58:16;;;;;;;11.02;7.93;;;;;;;9.75;66.74;98812.31;346202;28;1243;-64
2021/12/24 00:58:30;;;;;;;11.23;7.65;;;;;;;9.75;66.91;98817.50;346209;28;1067;-64
2021/12/24 00:58:43;;;;;;;11.13;6.95;;;;;;;9.77;66.56;98820.88;346098;28;1227;-64
2021/12/24 00:58:55;;;;;;;11.90;7.85;;;;;;;9.80;66.51;98819.00;344904;28;1306;-63
2021/12/24 00:59:07;;;;;;;12.98;8.63;;;;;;;9.82;66.46;98818.94;344075;28;2238;-64
2021/12/24 00:59:19;;;;;;;13.48;8.73;;;;;;;9.71;66.72;98813.34;342201;28;1153;-64
2021/12/24 00:59:31;;;;;;;13.57;8.63;;;;;;;9.68;66.91;98818.66;344829;28;1704;-64
2021/12/24 00:59:43;;;;;;;10.68;7.18;;;;;;;9.70;66.75;98819.44;346067;28;1107;-64
2021/12/24 00:59:56;;;;;;;11.18;7.22;;;;;;;9.73;66.80;98821.91;346177;28;1358;-64
2021/12/24 01:00:13;;;;;;;14.18;8.20;;;;;;;9.75;66.88;98817.50;342060;28;1001;-63
2021/12/24 01:00:35;;;;;;;13.32;8.05;;;;;;;9.81;66.63;98817.25;343620;28;1666;-64
2021/12/24 01:00:47;;;;;;;10.15;6.80;;;;;;;9.75;66.83;98820.09;343424;28;1232;-64
2021/12/24 01:01:00;;;;;;;10.48;6.88;;;;;;;9.75;66.61;98822.69;344387;28;1452;-64
2021/12/24 01:01:14;;;;;;;10.25;6.72;;;;;;;9.70;66.75;98824.63;344991;28;1098;-64
2021/12/24 01:01:26;;;;;;;9.05;6.30;;;;;;;9.73;66.93;98824.50;346361;28;1036;-63
2021/12/24 01:01:38;;;;;;;10.82;6.32;;;;;;;9.75;66.86;98817.50;345817;28;2652;-63
2021/12/24 01:01:51;;;;;;;12.98;7.10;;;;;;;9.81;66.51;98819.84;346142;28;1171;-64
2021/12/24 01:02:04;;;;;;;13.93;7.60;;;;;;;9.78;66.83;98819.97;346324;28;1638;-65
2021/12/24 01:02:16;;;;;;;11.20;7.50;;;;;;;9.77;66.56;98826.06;345811;28;1955;-64
2021/12/24 01:02:28;;;;;;;10.05;6.90;;;;;;;9.73;66.77;98822.75;346628;28;1942;-64
2021/12/24 01:02:41;;;;;;;9.35;6.18;;;;;;;9.77;66.91;98819.13;346655;28;1250;-63
2021/12/24 01:02:54;;;;;;;9.90;6.15;;;;;;;9.79;66.84;98824.25;346341;28;1957;-64
2021/12/24 01:03:09;;;;;;;11.15;6.68;;;;;;;9.81;66.72;98822.44;345542;28;995;-63
2021/12/24 01:03:21;;;;;;;13.80;8.30;;;;;;;9.83;66.67;98820.59;345460;28;1042;-64
2021/12/24 01:03:34;;;;;;;14.05;9.40;;;;;;;9.82;66.50;98824.13;345354;28;1081;-64
2021/12/24 01:03:46;;;;;;;15.25;10.15;;;;;;;9.81;66.62;98827.63;346702;28;1182;-64
2021/12/24 01:03:58;;;;;;;14.65;9.13;;;;;;;9.75;66.97;98822.69;346418;28;1635;-64
2021/12/24 01:04:10;;;;;;;12.90;7.82;;;;;;;9.76;66.81;98824.41;346745;28;1021;-64
2021/12/24 01:04:23;;;;;;;9.52;6.15;;;;;;;9.77;66.62;98826.91;346364;28;1034;-64
2021/12/24 01:04:37;;;;;;;8.25;5.15;;;;;;;9.74;66.85;98831.41;346594;28;1022;-64
2021/12/24 01:04:49;;;;;;;8.70;4.90;;;;;;;9.77;66.79;98826.91;346770;28;1072;-64
2021/12/24 01:05:02;;;;;;;9.13;5.28;;;;;;;9.82;66.66;98826.72;346635;28;1580;-65
2021/12/24 01:05:16;;;;;;;8.13;5.38;;;;;;;9.85;66.64;98823.97;345788;28;2754;-63
2021/12/24 01:05:29;;;;;;;8.63;5.38;;;;;;;9.85;66.56;98823.97;346699;28;1263;-64
2021/12/24 01:05:42;;;;;;;8.68;5.55;;;;;;;9.89;66.53;98824.69;346477;28;1070;-64
2021/12/24 01:05:54;;;;;;;8.48;5.60;;;;;;;9.94;66.22;98827.94;346704;28;1341;-64
2021/12/24 01:06:06;;;;;;;8.13;5.65;;;;;;;9.93;66.10;98834.88;346665;28;1058;-64
2021/12/24 01:06:18;;;;;;;8.07;5.57;;;;;;;9.93;66.33;98831.44;346698;28;1200;-64
2021/12/24 01:06:30;;;;;;;8.93;5.65;;;;;;;9.95;66.37;98830.47;346723;28;1240;-64
2021/12/24 01:06:43;;;;;;;8.85;5.45;;;;;;;9.96;66.37;98836.50;346715;28;1214;-65
2021/12/24 01:06:55;;;;;;;10.13;5.82;;;;;;;9.94;66.43;98836.59;345649;28;1791;-64
2021/12/24 01:07:07;;;;;;;9.38;6.03;;;;;;;9.95;66.04;98825.28;345614;28;1022;-64
2021/12/24 01:07:19;;;;;;;8.38;5.95;;;;;;;10.01;65.96;98829.34;345123;28;1442;-64
2021/12/24 01:07:31;;;;;;;8.80;5.53;;;;;;;9.94;66.16;98833.97;345041;28;1063;-65
2021/12/24 01:07:49;;;;;;;8.13;5.03;;;;;;;9.96;66.25;98834.75;345255;28;1304;-64
2021/12/24 01:08:02;;;;;;;7.53;4.50;;;;;;;9.98;66.21;98824.31;345692;28;1708;-63
2021/12/24 01:08:16;;;;;;;8.18;4.57;;;;;;;9.99;66.14;98831.19;346852;28;802;-63
2021/12/24 01:08:28;;;;;;;9.20;5.18;;;;;;;10.00;65.94;98828.53;345426;28;1233;-64
2021/12/24 01:08:39;;;;;;;9.70;5.75;;;;;;;10.02;66.19;98825.88;344943;28;1102;-64
2021/12/24 01:08:52;;;;;;;9.70;5.57;;;;;;;10.00;66.22;98823.34;344616;28;2059;-64
2021/12/24 01:09:04;;;;;;;8.57;4.97;;;;;;;10.05;65.94;98819.69;344736;28;1636;-64
2021/12/24 01:09:16;;;;;;;8.63;4.88;;;;;;;10.04;66.16;98823.19;344813;28;1141;-64
2021/12/24 01:09:28;;;;;;;8.13;5.50;;;;;;;10.07;66.04;98823.06;346245;28;1233;-64
2021/12/24 01:09:41;;;;;;;8.45;5.47;;;;;;;10.10;66.06;98828.09;345221;28;1129;-64
2021/12/24 01:09:53;;;;;;;7.68;4.95;;;;;;;10.10;65.54;98825.50;345177;28;1086;-64
2021/12/24 01:10:07;;;;;;;8.30;5.28;;;;;;;10.04;66.10;98830.97;346241;28;1685;-63
2021/12/24 01:10:24;;;;;;;10.30;6.85;;;;;;;9.99;65.98;98828.59;346454;28;1054;-64
2021/12/24 01:10:42;;;;;;;10.00;6.63;;;;;;;10.00;66.30;98827.69;346382;28;999;-65
2021/12/24 01:11:00;;;;;;;9.10;6.30;;;;;;;9.93;66.33;98827.09;346405;28;1826;-64
2021/12/24 01:11:12;;;;;;;9.15;5.93;;;;;;;9.92;66.34;98830.59;346544;28;1989;-64
2021/12/24 01:11:30;;;;;;;8.02;5.25;;;;;;;9.83;66.51;98825.81;346350;28;1086;-63
2021/12/24 01:11:42;;;;;;;7.30;5.00;;;;;;;9.85;66.52;98825.75;346310;28;1067;-63
2021/12/24 01:11:54;;;;;;;6.85;4.60;;;;;;;9.87;66.37;98827.34;346332;28;1232;-65
2021/12/24 01:12:07;;;;;;;6.28;4.65;;;;;;;9.91;66.61;98828.91;346139;28;1034;-64
2021/12/24 01:12:19;;;;;;;6.93;4.65;;;;;;;9.94;66.34;98823.59;346242;28;1067;-64
2021/12/24 01:12:31;;;;;;;7.32;4.70;;;;;;;9.91;66.38;98828.91;346146;28;1266;-64
2021/12/24 01:12:44;;;;;;;8.27;4.82;;;;;;;9.94;66.52;98826.19;346339;28;1295;-64
2021/12/24 01:12:56;;;;;;;7.75;4.88;;;;;;;10.00;66.34;98818.13;346328;28;1262;-65
2021/12/24 01:13:08;;;;;;;7.28;4.78;;;;;;;10.04;66.21;98823.19;346397;28;1173;-64
2021/12/24 01:13:20;;;;;;;5.97;4.15;;;;;;;10.06;65.88;98826.56;346545;28;1072;-64
2021/12/24 01:13:32;;;;;;;6.35;3.90;;;;;;;10.07;65.89;98823.06;345066;28;1378;-64
2021/12/24 01:13:45;;;;;;;6.05;3.90;;;;;;;10.10;66.01;98822.91;345890;28;2698;-64
2021/12/24 01:13:59;;;;;;;5.57;3.90;;;;;;;10.11;65.56;98825.44;346653;28;1661;-63
2021/12/24 01:14:11;;;;;;;5.53;3.75;;;;;;;10.09;65.95;98829.88;346636;28;1155;-64
2021/12/24 01:14:24;;;;;;;5.70;3.75;;;;;;;10.13;65.61;98827.97;346442;28;1024;-64
2021/12/24 01:14:40;;;;;;;6.20;4.00;;;;;;;10.12;65.97;98819.34;346256;28;1058;-63
2021/12/24 01:14:52;;;;;;;8.02;4.70;;;;;;;10.06;66.13;98827.41;346564;28;1179;-64
2021/12/24 01:15:06;;;;;;;7.68;4.60;;;;;;;10.10;65.73;98822.91;346233;28;1620;-64
2021/12/24 01:15:19;;;;;;;7.00;4.78;;;;;;;10.08;65.66;98824.72;346246;28;1022;-64
2021/12/24 01:15:34;;;;;;;8.63;6.18;;;;;;;9.93;66.04;98826.25;346060;28;1796;-64
2021/12/24 01:16:26;;;;;;;9.32;6.75;;;;;;;10.01;66.00;98824.16;346234;28;1349;-64
2021/12/24 01:16:42;;;;;;;8.68;4.18;;;;;;;9.99;66.19;98821.63;344819;28;1016;-63
2021/12/24 01:17:37;;;;;;;9.60;4.97;;;;;;;10.11;65.90;98815.06;343405;28;1347;-65
2021/12/24 01:19:28;;;;;;;7.63;5.32;;;;;;;10.09;65.85;98816.03;346312;28;1059;-64
2021/12/24 01:19:43;;;;;;;6.82;4.82;;;;;;;10.08;65.68;98816.94;346998;28;1326;-64
2021/12/24 01:20:02;;;;;;;7.70;4.72;;;;;;;10.10;65.69;98812.53;346995;28;1254;-64
2021/12/24 01:20:43;;;;;;;9.65;6.20;;;;;;;10.09;65.80;98821.25;346632;28;1209;-64
2021/12/24 01:20:58;;;;;;;11.73;7.97;;;;;;;10.11;66.07;98811.63;346398;28;1314;-63
2021/12/24 01:23:23;;;;;;;10.43;6.13;;;;;;;10.16;65.58;98807.06;346666;28;1354;-64
2021/12/24 01:24:04;;;;;;;8.90;6.07;;;;;;;10.14;65.31;98814.06;345119;28;1129;-64
2021/12/24 01:24:22;;;;;;;13.05;7.90;;;;;;;10.17;65.24;98814.78;345257;28;1065;-64
2021/12/24 01:24:44;;;;;;;12.02;7.53;;;;;;;10.19;65.27;98812.13;346091;28;1074;-64
2021/12/24 01:25:14;;;;;;;9.65;5.65;;;;;;;10.17;65.37;98813.94;346391;28;1345;-64
2021/12/24 01:25:47;;;;;;;11.80;6.70;;;;;;;10.10;65.71;98808.19;346315;28;1269;-64
2021/12/24 01:26:24;;;;;;;6.55;4.65;;;;;;;10.21;65.60;98810.31;345058;28;1108;-64
2021/12/24 01:26:56;;;;;;;6.85;4.07;;;;;;;10.18;65.38;98810.44;344693;28;1052;-64
2021/12/24 01:27:35;;;;;;;8.35;4.07;;;;;;;10.20;65.10;98813.78;344901;28;2261;-64
2021/12/24 01:28:02;;;;;;;5.70;4.00;;;;;;;10.20;65.01;98809.47;345495;28;2384;-64
2021/12/24 01:29:19;;;;;;;6.28;3.72;;;;;;;10.16;65.30;98809.66;345469;28;1373;-64
2021/12/24 01:30:06;;;;;;;5.00;3.42;;;;;;;10.00;65.48;98804.31;346303;28;1137;-63
2021/12/24 01:38:11;;;;;;;5.88;3.50;;;;;;;10.02;65.23;98804.22;346848;28;1617;-64
2021/12/24 01:39:10;;;;;;;6.07;3.42;;;;;;;10.08;64.99;98817.81;344650;28;1196;-64
2021/12/24 01:39:14;;;;;;;5.55;3.47;;;;;;;10.02;65.21;98812.03;346203;28;1189;-64
2021/12/24 01:39:39;;;;;;;4.20;3.20;;;;;;;10.04;65.31;98818.00;344779;28;2283;-64
2021/12/24 01:41:03;;;;;;;5.60;3.22;;;;;;;9.97;65.38;98809.63;345106;28;1485;-62
2021/12/24 01:41:19;;;;;;;5.75;3.60;;;;;;;10.03;65.53;98816.31;346660;28;1094;-64
2021/12/24 01:42:42;;;;;;;5.70;3.38;;;;;;;9.86;65.50;98820.50;346565;28;1763;-64
2021/12/24 01:42:55;;;;;;;6.47;3.58;;;;;;;9.87;65.52;98811.78;346667;28;1058;-64
2021/12/24 01:43:07;;;;;;;5.60;3.50;;;;;;;9.79;65.71;98808.69;345364;28;1015;-63
2021/12/24 01:43:21;;;;;;;5.97;3.38;;;;;;;9.84;65.98;98806.75;345063;28;1054;-64
2021/12/24 01:43:34;;;;;;;5.88;3.35;;;;;;;9.86;65.63;98807.50;345216;28;1102;-64
2021/12/24 01:43:46;;;;;;;5.10;3.33;;;;;;;9.85;65.74;98808.41;344885;28;1047;-64
2021/12/24 01:43:58;;;;;;;5.63;3.40;;;;;;;9.87;65.16;98806.59;344973;28;1389;-65
2021/12/24 01:44:11;;;;;;;5.78;3.42;;;;;;;9.88;65.59;98808.28;346568;28;1061;-72
2021/12/24 01:44:27;;;;;;;5.25;3.42;;;;;;;9.86;65.64;98804.91;345786;28;2025;-64
2021/12/24 01:44:39;;;;;;;5.60;3.50;;;;;;;9.90;65.70;98806.47;346450;28;1320;-64
2021/12/24 01:44:51;;;;;;;5.82;3.50;;;;;;;9.90;65.69;98806.47;345418;28;1232;-64
2021/12/24 01:45:26;;;;;;;6.25;3.60;;;;;;;9.96;65.48;98811.41;345873;28;1885;-64
2021/12/24 01:45:38;;;;;;;5.40;3.53;;;;;;;9.94;65.23;98805.44;346166;28;1297;-64
2021/12/24 01:45:54;;;;;;;4.80;3.25;;;;;;;9.95;65.35;98807.09;346116;28;1665;-67
2021/12/24 01:46:06;;;;;;;6.30;3.28;;;;;;;9.96;65.26;98811.41;345202;28;1237;-63
2021/12/24 01:46:18;;;;;;;6.93;3.45;;;;;;;10.01;65.04;98808.59;345804;28;1742;-67
2021/12/24 01:46:30;;;;;;;6.38;3.45;;;;;;;10.01;65.27;98808.59;346520;28;1110;-64